sensor_id;sensor_type;location;lat;lon;timestamp;temperature;humidity
20081;DHT22;10200;49.232;9.222;2022-09-30T00:00:25;9.40;99.90
20081;DHT22;10200;49.232;9.222;2022-09-30T00:02:51;9.40;99.90
20081;DHT22;10200;49.232;9.222;2022-09-30T00:05:17;9.40;99.90
20081;DHT22;10200;49.232;9.222;2022-09-30T00:07:42;9.40;99.90
20081;DHT22;10200;49.232;9.222;2022-09-30T00:10:08;9.40;99.90
20081;DHT22;10200;49.232;9.222;2022-09-30T00:12:34;9.40;99.90
20081;DHT22;10200;49.232;9.222;2022-09-30T00:15:00;9.40;99.90
20081;DHT22;10200;49.232;9.222;2022-09-30T00:17:25;9.40;99.90
20081;DHT22;10200;49.232;9.222;2022-09-30T00:19:52;9.30;99.90
20081;DHT22;10200;49.232;9.222;2022-09-30T00:22:18;9.30;99.90
20081;DHT22;10200;49.232;9.222;2022-09-30T00:24:43;9.30;99.90
20081;DHT22;10200;49.232;9.222;2022-09-30T00:27:10;9.20;99.90
20081;DHT22;10200;49.232;9.222;2022-09-30T00:29:36;9.20;99.90
20081;DHT22;10200;49.232;9.222;2022-09-30T00:32:02;9.20;99.90
20081;DHT22;10200;49.232;9.222;2022-09-30T00:34:27;9.10;99.90
20081;DHT22;10200;49.232;9.222;2022-09-30T00:36:54;9.10;99.90
20081;DHT22;10200;49.232;9.222;2022-09-30T00:39:25;9.10;99.90
20081;DHT22;10200;49.232;9.222;2022-09-30T00:42:00;9.10;99.90
20081;DHT22;10200;49.232;9.222;2022-09-30T00:47:41;9.00;99.90
20081;DHT22;10200;49.232;9.222;2022-09-30T00:53:05;8.90;99.90
20081;DHT22;10200;49.232;9.222;2022-09-30T00:55:38;8.90;99.90
20081;DHT22;10200;49.232;9.222;2022-09-30T00:58:08;8.90;99.90
20081;DHT22;10200;49.232;9.222;2022-09-30T01:00:35;9.00;99.90
20081;DHT22;10200;49.232;9.222;2022-09-30T01:03:02;9.00;99.90
20081;DHT22;10200;49.232;9.222;2022-09-30T01:05:30;9.00;99.90
20081;DHT22;10200;49.232;9.222;2022-09-30T01:07:57;9.10;99.90
20081;DHT22;10200;49.232;9.222;2022-09-30T01:10:24;9.00;99.90
20081;DHT22;10200;49.232;9.222;2022-09-30T01:12:50;9.00;99.90
20081;DHT22;10200;49.232;9.222;2022-09-30T01:15:16;9.00;99.90
20081;DHT22;10200;49.232;9.222;2022-09-30T01:17:47;9.00;99.90
20081;DHT22;10200;49.232;9.222;2022-09-30T01:38:04;8.80;99.90
20081;DHT22;10200;49.232;9.222;2022-09-30T01:40:43;8.80;99.90
20081;DHT22;10200;49.232;9.222;2022-09-30T01:43:16;8.80;99.90
20081;DHT22;10200;49.232;9.222;2022-09-30T01:45:58;8.80;99.90
20081;DHT22;10200;49.232;9.222;2022-09-30T01:48:45;8.70;99.90
20081;DHT22;10200;49.232;9.222;2022-09-30T01:53:59;8.60;99.90
20081;DHT22;10200;49.232;9.222;2022-09-30T01:56:44;8.60;99.90
20081;DHT22;10200;49.232;9.222;2022-09-30T01:59:16;8.60;99.90
20081;DHT22;10200;49.232;9.222;2022-09-30T02:01:52;8.60;99.90
20081;DHT22;10200;49.232;9.222;2022-09-30T02:04:24;8.70;99.90
20081;DHT22;10200;49.232;9.222;2022-09-30T02:06:56;8.70;99.90
20081;DHT22;10200;49.232;9.222;2022-09-30T02:09:39;8.70;99.90
20081;DHT22;10200;49.232;9.222;2022-09-30T02:12:07;8.80;99.90
20081;DHT22;10200;49.232;9.222;2022-09-30T02:14:44;8.70;99.90
20081;DHT22;10200;49.232;9.222;2022-09-30T02:17:21;8.70;99.90
20081;DHT22;10200;49.232;9.222;2022-09-30T02:20:03;8.70;99.90
20081;DHT22;10200;49.232;9.222;2022-09-30T02:22:37;8.80;99.90
20081;DHT22;10200;49.232;9.222;2022-09-30T02:25:20;8.80;99.90
20081;DHT22;10200;49.232;9.222;2022-09-30T02:27:50;8.70;99.90
20081;DHT22;10200;49.232;9.222;2022-09-30T02:30:17;8.70;99.90
20081;DHT22;10200;49.232;9.222;2022-09-30T02:32:55;8.70;99.90
20081;DHT22;10200;49.232;9.222;2022-09-30T02:35:57;8.70;99.90
20081;DHT22;10200;49.232;9.222;2022-09-30T02:38:18;8.70;99.90
20081;DHT22;10200;49.232;9.222;2022-09-30T02:40:49;8.70;99.90
20081;DHT22;10200;49.232;9.222;2022-09-30T02:43:18;8.60;99.90
20081;DHT22;10200;49.232;9.222;2022-09-30T02:45:50;8.60;99.90
20081;DHT22;10200;49.232;9.222;2022-09-30T02:48:24;8.60;99.90
20081;DHT22;10200;49.232;9.222;2022-09-30T02:50:59;8.60;99.90
20081;DHT22;10200;49.232;9.222;2022-09-30T02:54:00;8.60;99.90
20081;DHT22;10200;49.232;9.222;2022-09-30T02:59:03;8.60;99.90
20081;DHT22;10200;49.232;9.222;2022-09-30T03:01:29;8.60;99.90
20081;DHT22;10200;49.232;9.222;2022-09-30T03:03:58;8.70;99.90
20081;DHT22;10200;49.232;9.222;2022-09-30T03:06:24;8.70;99.90
20081;DHT22;10200;49.232;9.222;2022-09-30T03:08:53;8.70;99.90
20081;DHT22;10200;49.232;9.222;2022-09-30T03:11:21;8.80;99.90
20081;DHT22;10200;49.232;9.222;2022-09-30T03:14:19;8.80;99.90
20081;DHT22;10200;49.232;9.222;2022-09-30T03:19:45;8.80;99.90
20081;DHT22;10200;49.232;9.222;2022-09-30T03:30:12;8.80;99.90
20081;DHT22;10200;49.232;9.222;2022-09-30T03:35:48;8.80;99.90
20081;DHT22;10200;49.232;9.222;2022-09-30T03:49:09;8.60;99.90
20081;DHT22;10200;49.232;9.222;2022-09-30T03:51:38;8.60;99.90
20081;DHT22;10200;49.232;9.222;2022-09-30T03:54:12;8.60;99.90
20081;DHT22;10200;49.232;9.222;2022-09-30T03:56:39;8.60;99.90
20081;DHT22;10200;49.232;9.222;2022-09-30T03:59:16;8.60;99.90
20081;DHT22;10200;49.232;9.222;2022-09-30T04:01:43;8.60;99.90
20081;DHT22;10200;49.232;9.222;2022-09-30T04:04:09;8.50;99.90
20081;DHT22;10200;49.232;9.222;2022-09-30T04:06:37;8.50;99.90
20081;DHT22;10200;49.232;9.222;2022-09-30T04:09:03;8.50;99.90
20081;DHT22;10200;49.232;9.222;2022-09-30T04:11:28;8.40;99.90
20081;DHT22;10200;49.232;9.222;2022-09-30T04:13:54;8.50;99.90
20081;DHT22;10200;49.232;9.222;2022-09-30T04:16:20;8.50;99.90
20081;DHT22;10200;49.232;9.222;2022-09-30T04:18:45;8.50;99.90
20081;DHT22;10200;49.232;9.222;2022-09-30T04:21:13;8.50;99.90
20081;DHT22;10200;49.232;9.222;2022-09-30T04:23:40;8.50;99.90
20081;DHT22;10200;49.232;9.222;2022-09-30T04:26:09;8.50;99.90
20081;DHT22;10200;49.232;9.222;2022-09-30T04:28:35;8.50;99.90
20081;DHT22;10200;49.232;9.222;2022-09-30T04:31:02;8.40;99.90
20081;DHT22;10200;49.232;9.222;2022-09-30T04:33:28;8.40;99.90
20081;DHT22;10200;49.232;9.222;2022-09-30T04:35:55;8.40;99.90
20081;DHT22;10200;49.232;9.222;2022-09-30T04:38:22;8.40;99.90
20081;DHT22;10200;49.232;9.222;2022-09-30T04:40:49;8.40;99.90
20081;DHT22;10200;49.232;9.222;2022-09-30T04:43:16;8.50;99.90
20081;DHT22;10200;49.232;9.222;2022-09-30T04:45:44;8.40;99.90
20081;DHT22;10200;49.232;9.222;2022-09-30T04:48:10;8.40;99.90
20081;DHT22;10200;49.232;9.222;2022-09-30T04:50:36;8.40;99.90
20081;DHT22;10200;49.232;9.222;2022-09-30T04:53:02;8.40;99.90
20081;DHT22;10200;49.232;9.222;2022-09-30T04:55:28;8.30;99.90
20081;DHT22;10200;49.232;9.222;2022-09-30T04:57:54;8.40;99.90
20081;DHT22;10200;49.232;9.222;2022-09-30T05:00:20;8.30;99.90
20081;DHT22;10200;49.232;9.222;2022-09-30T05:02:45;8.30;99.90
20081;DHT22;10200;49.232;9.222;2022-09-30T05:05:12;8.20;99.90
20081;DHT22;10200;49.232;9.222;2022-09-30T05:07:38;8.20;99.90
20081;DHT22;10200;49.232;9.222;2022-09-30T05:10:04;8.20;99.90
20081;DHT22;10200;49.232;9.222;2022-09-30T05:12:29;8.20;99.90
20081;DHT22;10200;49.232;9.222;2022-09-30T05:14:56;8.20;99.90
20081;DHT22;10200;49.232;9.222;2022-09-30T05:17:22;8.20;99.90
20081;DHT22;10200;49.232;9.222;2022-09-30T05:19:47;8.30;99.90
20081;DHT22;10200;49.232;9.222;2022-09-30T05:22:13;8.30;99.90
20081;DHT22;10200;49.232;9.222;2022-09-30T05:24:39;8.20;99.90
20081;DHT22;10200;49.232;9.222;2022-09-30T05:27:04;8.20;99.90
20081;DHT22;10200;49.232;9.222;2022-09-30T05:29:31;8.20;99.90
20081;DHT22;10200;49.232;9.222;2022-09-30T05:31:56;8.20;99.90
20081;DHT22;10200;49.232;9.222;2022-09-30T05:34:22;8.20;99.90
20081;DHT22;10200;49.232;9.222;2022-09-30T05:36:48;8.30;99.90
20081;DHT22;10200;49.232;9.222;2022-09-30T05:39:13;8.20;99.90
20081;DHT22;10200;49.232;9.222;2022-09-30T05:41:39;8.20;99.90
20081;DHT22;10200;49.232;9.222;2022-09-30T05:44:04;8.20;99.90
20081;DHT22;10200;49.232;9.222;2022-09-30T05:46:31;8.30;99.90
20081;DHT22;10200;49.232;9.222;2022-09-30T05:48:57;8.30;99.90
20081;DHT22;10200;49.232;9.222;2022-09-30T05:51:22;8.20;99.90
20081;DHT22;10200;49.232;9.222;2022-09-30T05:53:48;8.20;99.90
20081;DHT22;10200;49.232;9.222;2022-09-30T05:56:13;8.20;99.90
20081;DHT22;10200;49.232;9.222;2022-09-30T05:58:39;8.20;99.90
20081;DHT22;10200;49.232;9.222;2022-09-30T06:01:09;8.30;99.90
20081;DHT22;10200;49.232;9.222;2022-09-30T06:03:35;8.40;99.90
20081;DHT22;10200;49.232;9.222;2022-09-30T06:06:01;8.50;99.90
20081;DHT22;10200;49.232;9.222;2022-09-30T06:08:26;8.50;99.90
20081;DHT22;10200;49.232;9.222;2022-09-30T06:10:52;8.50;99.90
20081;DHT22;10200;49.232;9.222;2022-09-30T06:13:18;8.50;99.90
20081;DHT22;10200;49.232;9.222;2022-09-30T06:15:55;8.60;99.90
20081;DHT22;10200;49.232;9.222;2022-09-30T06:18:21;8.60;99.90
20081;DHT22;10200;49.232;9.222;2022-09-30T06:20:47;8.70;99.90
20081;DHT22;10200;49.232;9.222;2022-09-30T06:23:12;8.80;99.90
20081;DHT22;10200;49.232;9.222;2022-09-30T06:25:38;8.90;99.90
20081;DHT22;10200;49.232;9.222;2022-09-30T06:28:04;8.90;99.90
20081;DHT22;10200;49.232;9.222;2022-09-30T06:30:30;9.10;99.90
20081;DHT22;10200;49.232;9.222;2022-09-30T06:32:56;9.40;99.90
20081;DHT22;10200;49.232;9.222;2022-09-30T06:35:21;9.70;99.90
20081;DHT22;10200;49.232;9.222;2022-09-30T06:37:52;10.60;99.90
20081;DHT22;10200;49.232;9.222;2022-09-30T06:40:19;11.90;99.90
20081;DHT22;10200;49.232;9.222;2022-09-30T06:42:48;13.20;99.90
20081;DHT22;10200;49.232;9.222;2022-09-30T06:45:14;14.30;99.90
20081;DHT22;10200;49.232;9.222;2022-09-30T06:47:40;15.30;99.00
20081;DHT22;10200;49.232;9.222;2022-09-30T06:52:32;17.10;87.30
20081;DHT22;10200;49.232;9.222;2022-09-30T06:54:58;17.80;80.30
20081;DHT22;10200;49.232;9.222;2022-09-30T06:57:24;18.30;76.20
20081;DHT22;10200;49.232;9.222;2022-09-30T06:59:52;18.70;72.30
20081;DHT22;10200;49.232;9.222;2022-09-30T07:02:19;18.70;68.30
20081;DHT22;10200;49.232;9.222;2022-09-30T07:04:45;19.10;68.70
20081;DHT22;10200;49.232;9.222;2022-09-30T07:07:11;19.40;65.00
20081;DHT22;10200;49.232;9.222;2022-09-30T07:09:36;19.20;63.40
20081;DHT22;10200;49.232;9.222;2022-09-30T07:12:03;19.40;63.90
20081;DHT22;10200;49.232;9.222;2022-09-30T07:14:29;19.70;61.60
20081;DHT22;10200;49.232;9.222;2022-09-30T07:16:57;19.80;60.30
20081;DHT22;10200;49.232;9.222;2022-09-30T07:19:22;19.70;59.40
20081;DHT22;10200;49.232;9.222;2022-09-30T07:21:48;19.30;58.90
20081;DHT22;10200;49.232;9.222;2022-09-30T07:24:15;18.90;59.40
20081;DHT22;10200;49.232;9.222;2022-09-30T07:26:41;18.60;60.40
20081;DHT22;10200;49.232;9.222;2022-09-30T07:29:10;18.40;61.00
20081;DHT22;10200;49.232;9.222;2022-09-30T07:31:36;18.50;62.80
20081;DHT22;10200;49.232;9.222;2022-09-30T07:34:03;18.70;61.70
20081;DHT22;10200;49.232;9.222;2022-09-30T07:36:31;18.80;61.60
20081;DHT22;10200;49.232;9.222;2022-09-30T07:38:57;19.00;61.20
20081;DHT22;10200;49.232;9.222;2022-09-30T07:41:26;19.10;60.20
20081;DHT22;10200;49.232;9.222;2022-09-30T07:43:57;19.30;60.80
20081;DHT22;10200;49.232;9.222;2022-09-30T07:46:30;19.50;60.50
20081;DHT22;10200;49.232;9.222;2022-09-30T07:48:58;19.50;58.30
20081;DHT22;10200;49.232;9.222;2022-09-30T07:51:29;19.60;59.30
20081;DHT22;10200;49.232;9.222;2022-09-30T07:53:58;19.90;58.80
20081;DHT22;10200;49.232;9.222;2022-09-30T07:56:25;19.80;58.00
20081;DHT22;10200;49.232;9.222;2022-09-30T07:58:58;19.90;58.70
20081;DHT22;10200;49.232;9.222;2022-09-30T08:01:26;19.80;58.70
20081;DHT22;10200;49.232;9.222;2022-09-30T08:03:55;19.80;58.80
20081;DHT22;10200;49.232;9.222;2022-09-30T08:06:21;19.80;58.90
20081;DHT22;10200;49.232;9.222;2022-09-30T08:08:50;20.10;59.90
20081;DHT22;10200;49.232;9.222;2022-09-30T08:11:16;19.90;57.80
20081;DHT22;10200;49.232;9.222;2022-09-30T08:13:42;20.00;59.10
20081;DHT22;10200;49.232;9.222;2022-09-30T08:16:08;19.90;57.60
20081;DHT22;10200;49.232;9.222;2022-09-30T08:18:34;19.70;58.40
20081;DHT22;10200;49.232;9.222;2022-09-30T08:21:04;19.60;58.80
20081;DHT22;10200;49.232;9.222;2022-09-30T08:23:34;19.60;59.30
20081;DHT22;10200;49.232;9.222;2022-09-30T08:26:04;19.70;59.80
20081;DHT22;10200;49.232;9.222;2022-09-30T08:28:30;19.80;59.40
20081;DHT22;10200;49.232;9.222;2022-09-30T08:31:07;19.80;59.40
20081;DHT22;10200;49.232;9.222;2022-09-30T08:33:34;19.90;59.70
20081;DHT22;10200;49.232;9.222;2022-09-30T08:36:11;19.90;58.60
20081;DHT22;10200;49.232;9.222;2022-09-30T08:38:37;19.70;60.00
20081;DHT22;10200;49.232;9.222;2022-09-30T08:52:37;19.50;63.30
20081;DHT22;10200;49.232;9.222;2022-09-30T08:55:05;19.50;61.10
20081;DHT22;10200;49.232;9.222;2022-09-30T08:57:43;19.30;60.90
20081;DHT22;10200;49.232;9.222;2022-09-30T09:00:14;19.00;62.50
20081;DHT22;10200;49.232;9.222;2022-09-30T09:03:10;18.80;64.20
20081;DHT22;10200;49.232;9.222;2022-09-30T09:08:45;18.20;65.20
20081;DHT22;10200;49.232;9.222;2022-09-30T09:13:58;17.70;66.40
20081;DHT22;10200;49.232;9.222;2022-09-30T09:16:40;17.60;67.50
20081;DHT22;10200;49.232;9.222;2022-09-30T09:19:16;17.50;69.00
20081;DHT22;10200;49.232;9.222;2022-09-30T09:22:00;17.50;69.60
20081;DHT22;10200;49.232;9.222;2022-09-30T09:26:57;17.60;70.80
20081;DHT22;10200;49.232;9.222;2022-09-30T09:32:15;18.00;70.60
20081;DHT22;10200;49.232;9.222;2022-09-30T09:34:42;17.80;69.80
20081;DHT22;10200;49.232;9.222;2022-09-30T09:42:52;17.70;70.20
20081;DHT22;10200;49.232;9.222;2022-09-30T09:45:26;17.40;70.40
20081;DHT22;10200;49.232;9.222;2022-09-30T09:47:53;17.50;72.40
20081;DHT22;10200;49.232;9.222;2022-09-30T09:53:15;17.80;72.70
20081;DHT22;10200;49.232;9.222;2022-09-30T09:55:45;17.70;71.40
20081;DHT22;10200;49.232;9.222;2022-09-30T09:58:14;17.60;71.50
20081;DHT22;10200;49.232;9.222;2022-09-30T10:00:42;17.60;73.70
20081;DHT22;10200;49.232;9.222;2022-09-30T10:03:13;17.60;74.20
20081;DHT22;10200;49.232;9.222;2022-09-30T10:05:45;17.70;73.60
20081;DHT22;10200;49.232;9.222;2022-09-30T10:08:20;17.50;71.90
20081;DHT22;10200;49.232;9.222;2022-09-30T10:15:54;17.30;73.80
20081;DHT22;10200;49.232;9.222;2022-09-30T10:20:55;17.10;73.30
20081;DHT22;10200;49.232;9.222;2022-09-30T10:23:26;17.00;74.80
20081;DHT22;10200;49.232;9.222;2022-09-30T10:25:59;17.00;74.40
20081;DHT22;10200;49.232;9.222;2022-09-30T10:28:28;17.00;74.30
20081;DHT22;10200;49.232;9.222;2022-09-30T10:31:01;16.90;73.30
20081;DHT22;10200;49.232;9.222;2022-09-30T10:33:35;16.80;74.30
20081;DHT22;10200;49.232;9.222;2022-09-30T10:36:08;16.90;75.20
20081;DHT22;10200;49.232;9.222;2022-09-30T10:38:35;16.90;75.30
20081;DHT22;10200;49.232;9.222;2022-09-30T10:41:03;16.90;75.40
20081;DHT22;10200;49.232;9.222;2022-09-30T10:43:33;16.80;75.00
20081;DHT22;10200;49.232;9.222;2022-09-30T10:46:02;16.70;76.20
20081;DHT22;10200;49.232;9.222;2022-09-30T10:48:33;16.80;75.60
20081;DHT22;10200;49.232;9.222;2022-09-30T10:50:59;16.70;75.60
20081;DHT22;10200;49.232;9.222;2022-09-30T10:53:27;16.70;75.40
20081;DHT22;10200;49.232;9.222;2022-09-30T10:55:54;16.80;74.30
20081;DHT22;10200;49.232;9.222;2022-09-30T11:06:19;16.70;71.10
20081;DHT22;10200;49.232;9.222;2022-09-30T11:09:11;16.70;71.30
20081;DHT22;10200;49.232;9.222;2022-09-30T11:11:47;16.70;71.00
20081;DHT22;10200;49.232;9.222;2022-09-30T11:16:46;16.80;70.80
20081;DHT22;10200;49.232;9.222;2022-09-30T11:19:32;16.90;71.10
20081;DHT22;10200;49.232;9.222;2022-09-30T11:22:15;16.90;71.10
20081;DHT22;10200;49.232;9.222;2022-09-30T11:24:45;16.90;71.70
20081;DHT22;10200;49.232;9.222;2022-09-30T11:27:38;16.90;72.00
20081;DHT22;10200;49.232;9.222;2022-09-30T11:38:32;16.80;69.30
20081;DHT22;10200;49.232;9.222;2022-09-30T11:41:31;16.90;70.10
20081;DHT22;10200;49.232;9.222;2022-09-30T11:52:11;17.10;67.80
20081;DHT22;10200;49.232;9.222;2022-09-30T11:55:00;17.10;68.60
20081;DHT22;10200;49.232;9.222;2022-09-30T11:57:42;17.10;67.20
20081;DHT22;10200;49.232;9.222;2022-09-30T12:00:17;17.10;67.90
20081;DHT22;10200;49.232;9.222;2022-09-30T12:02:47;17.10;67.40
20081;DHT22;10200;49.232;9.222;2022-09-30T12:05:21;17.30;67.80
20081;DHT22;10200;49.232;9.222;2022-09-30T12:07:54;17.30;67.00
20081;DHT22;10200;49.232;9.222;2022-09-30T12:10:31;17.40;66.40
20081;DHT22;10200;49.232;9.222;2022-09-30T12:13:15;17.30;65.80
20081;DHT22;10200;49.232;9.222;2022-09-30T12:15:44;17.40;66.30
20081;DHT22;10200;49.232;9.222;2022-09-30T12:18:45;17.40;66.80
20081;DHT22;10200;49.232;9.222;2022-09-30T12:21:23;17.50;66.30
20081;DHT22;10200;49.232;9.222;2022-09-30T12:24:16;17.60;66.90
20081;DHT22;10200;49.232;9.222;2022-09-30T12:26:44;17.70;67.30
20081;DHT22;10200;49.232;9.222;2022-09-30T12:32:24;17.80;66.70
20081;DHT22;10200;49.232;9.222;2022-09-30T12:35:25;17.80;67.50
20081;DHT22;10200;49.232;9.222;2022-09-30T12:47:12;18.00;65.40
20081;DHT22;10200;49.232;9.222;2022-09-30T12:49:40;18.10;66.00
20081;DHT22;10200;49.232;9.222;2022-09-30T12:52:17;18.10;65.20
20081;DHT22;10200;49.232;9.222;2022-09-30T12:54:51;18.10;64.50
20081;DHT22;10200;49.232;9.222;2022-09-30T12:57:29;18.20;64.70
20081;DHT22;10200;49.232;9.222;2022-09-30T13:00:03;18.30;64.70
20081;DHT22;10200;49.232;9.222;2022-09-30T13:02:37;18.30;62.70
20081;DHT22;10200;49.232;9.222;2022-09-30T13:10:30;18.40;62.60
20081;DHT22;10200;49.232;9.222;2022-09-30T13:13:24;18.40;61.30
20081;DHT22;10200;49.232;9.222;2022-09-30T13:15:54;18.40;61.60
20081;DHT22;10200;49.232;9.222;2022-09-30T13:21:16;18.50;61.50
20081;DHT22;10200;49.232;9.222;2022-09-30T13:23:53;18.60;60.80
20081;DHT22;10200;49.232;9.222;2022-09-30T13:31:28;18.60;60.60
20081;DHT22;10200;49.232;9.222;2022-09-30T13:36:39;18.60;61.40
20081;DHT22;10200;49.232;9.222;2022-09-30T13:39:29;18.50;60.90
20081;DHT22;10200;49.232;9.222;2022-09-30T13:44:56;18.50;61.40
20081;DHT22;10200;49.232;9.222;2022-09-30T13:47:28;18.40;60.50
20081;DHT22;10200;49.232;9.222;2022-09-30T13:49:59;18.40;60.20
20081;DHT22;10200;49.232;9.222;2022-09-30T13:52:33;18.40;60.00
20081;DHT22;10200;49.232;9.222;2022-09-30T13:55:05;18.20;59.60
20081;DHT22;10200;49.232;9.222;2022-09-30T13:57:50;18.20;59.50
20081;DHT22;10200;49.232;9.222;2022-09-30T14:00:17;18.20;59.70
20081;DHT22;10200;49.232;9.222;2022-09-30T14:03:05;18.20;59.10
20081;DHT22;10200;49.232;9.222;2022-09-30T14:05:57;18.10;58.70
20081;DHT22;10200;49.232;9.222;2022-09-30T14:11:06;18.10;59.30
20081;DHT22;10200;49.232;9.222;2022-09-30T14:13:41;18.20;58.70
20081;DHT22;10200;49.232;9.222;2022-09-30T14:19:42;18.20;58.70
20081;DHT22;10200;49.232;9.222;2022-09-30T14:22:12;18.10;57.70
20081;DHT22;10200;49.232;9.222;2022-09-30T14:24:38;18.20;58.40
20081;DHT22;10200;49.232;9.222;2022-09-30T14:32:57;18.20;58.60
20081;DHT22;10200;49.232;9.222;2022-09-30T14:35:30;18.20;57.70
20081;DHT22;10200;49.232;9.222;2022-09-30T14:38:12;18.30;58.60
20081;DHT22;10200;49.232;9.222;2022-09-30T14:40:40;18.20;57.90
20081;DHT22;10200;49.232;9.222;2022-09-30T14:43:15;18.20;57.90
20081;DHT22;10200;49.232;9.222;2022-09-30T14:45:44;18.20;58.20
20081;DHT22;10200;49.232;9.222;2022-09-30T14:48:19;18.20;58.50
20081;DHT22;10200;49.232;9.222;2022-09-30T14:50:48;18.10;58.70
20081;DHT22;10200;49.232;9.222;2022-09-30T14:53:37;18.10;59.80
20081;DHT22;10200;49.232;9.222;2022-09-30T14:56:21;18.10;60.00
20081;DHT22;10200;49.232;9.222;2022-09-30T14:58:50;18.10;60.10
20081;DHT22;10200;49.232;9.222;2022-09-30T15:01:19;18.10;59.90
20081;DHT22;10200;49.232;9.222;2022-09-30T15:04:03;18.00;60.20
20081;DHT22;10200;49.232;9.222;2022-09-30T15:06:32;18.00;61.00
20081;DHT22;10200;49.232;9.222;2022-09-30T15:11:32;18.00;61.80
20081;DHT22;10200;49.232;9.222;2022-09-30T15:14:04;18.00;62.50
20081;DHT22;10200;49.232;9.222;2022-09-30T15:16:31;17.90;62.40
20081;DHT22;10200;49.232;9.222;2022-09-30T15:18:57;17.80;61.80
20081;DHT22;10200;49.232;9.222;2022-09-30T15:21:29;17.80;63.00
20081;DHT22;10200;49.232;9.222;2022-09-30T15:23:56;17.80;63.30
20081;DHT22;10200;49.232;9.222;2022-09-30T15:26:24;17.70;64.80
20081;DHT22;10200;49.232;9.222;2022-09-30T15:28:50;17.80;64.50
20081;DHT22;10200;49.232;9.222;2022-09-30T15:33:45;17.60;64.40
20081;DHT22;10200;49.232;9.222;2022-09-30T15:36:15;17.60;65.00
20081;DHT22;10200;49.232;9.222;2022-09-30T15:38:47;17.50;64.40
20081;DHT22;10200;49.232;9.222;2022-09-30T15:41:13;17.40;64.00
20081;DHT22;10200;49.232;9.222;2022-09-30T15:43:45;17.30;65.00
20081;DHT22;10200;49.232;9.222;2022-09-30T15:48:46;17.20;65.80
20081;DHT22;10200;49.232;9.222;2022-09-30T15:53:49;17.30;66.10
20081;DHT22;10200;49.232;9.222;2022-09-30T15:58:57;17.40;66.20
20081;DHT22;10200;49.232;9.222;2022-09-30T16:01:25;17.40;65.80
20081;DHT22;10200;49.232;9.222;2022-09-30T16:03:54;17.40;65.50
20081;DHT22;10200;49.232;9.222;2022-09-30T16:06:56;17.40;65.30
20081;DHT22;10200;49.232;9.222;2022-09-30T16:09:54;17.40;65.60
20081;DHT22;10200;49.232;9.222;2022-09-30T16:12:14;17.30;66.50
20081;DHT22;10200;49.232;9.222;2022-09-30T16:14:43;17.20;65.80
20081;DHT22;10200;49.232;9.222;2022-09-30T16:17:24;17.10;66.90
20081;DHT22;10200;49.232;9.222;2022-09-30T16:19:56;17.10;67.90
20081;DHT22;10200;49.232;9.222;2022-09-30T16:25:12;16.90;69.50
20081;DHT22;10200;49.232;9.222;2022-09-30T16:27:38;16.80;69.30
20081;DHT22;10200;49.232;9.222;2022-09-30T16:30:04;16.70;69.80
20081;DHT22;10200;49.232;9.222;2022-09-30T16:32:35;16.70;71.10
20081;DHT22;10200;49.232;9.222;2022-09-30T16:35:02;16.50;72.20
20081;DHT22;10200;49.232;9.222;2022-09-30T16:37:28;16.50;73.20
20081;DHT22;10200;49.232;9.222;2022-09-30T16:39:58;16.30;73.60
20081;DHT22;10200;49.232;9.222;2022-09-30T16:42:26;16.20;74.20
20081;DHT22;10200;49.232;9.222;2022-09-30T16:44:51;16.10;75.00
20081;DHT22;10200;49.232;9.222;2022-09-30T16:47:17;16.10;76.30
20081;DHT22;10200;49.232;9.222;2022-09-30T16:49:46;16.10;76.80
20081;DHT22;10200;49.232;9.222;2022-09-30T16:52:12;16.00;76.90
20081;DHT22;10200;49.232;9.222;2022-09-30T16:54:38;15.80;77.70
20081;DHT22;10200;49.232;9.222;2022-09-30T16:57:04;15.80;78.70
20081;DHT22;10200;49.232;9.222;2022-09-30T16:59:30;15.60;79.50
20081;DHT22;10200;49.232;9.222;2022-09-30T17:01:57;15.50;80.20
20081;DHT22;10200;49.232;9.222;2022-09-30T17:04:24;15.30;81.30
20081;DHT22;10200;49.232;9.222;2022-09-30T17:06:51;15.20;82.40
20081;DHT22;10200;49.232;9.222;2022-09-30T17:09:18;15.10;83.30
20081;DHT22;10200;49.232;9.222;2022-09-30T17:11:44;15.00;84.10
20081;DHT22;10200;49.232;9.222;2022-09-30T17:14:09;14.90;84.90
20081;DHT22;10200;49.232;9.222;2022-09-30T17:16:35;14.70;85.70
20081;DHT22;10200;49.232;9.222;2022-09-30T17:19:01;14.70;87.10
20081;DHT22;10200;49.232;9.222;2022-09-30T17:21:26;14.60;88.00
20081;DHT22;10200;49.232;9.222;2022-09-30T17:23:53;14.40;88.60
20081;DHT22;10200;49.232;9.222;2022-09-30T17:26:20;14.30;89.70
20081;DHT22;10200;49.232;9.222;2022-09-30T17:28:46;14.30;90.70
20081;DHT22;10200;49.232;9.222;2022-09-30T17:31:12;14.30;91.60
20081;DHT22;10200;49.232;9.222;2022-09-30T17:33:39;14.30;92.40
20081;DHT22;10200;49.232;9.222;2022-09-30T17:36:10;14.30;93.10
20081;DHT22;10200;49.232;9.222;2022-09-30T17:38:37;14.20;93.90
20081;DHT22;10200;49.232;9.222;2022-09-30T17:41:04;14.10;94.40
20081;DHT22;10200;49.232;9.222;2022-09-30T17:43:49;14.00;95.00
20081;DHT22;10200;49.232;9.222;2022-09-30T17:46:16;13.90;95.80
20081;DHT22;10200;49.232;9.222;2022-09-30T17:48:43;13.80;97.00
20081;DHT22;10200;49.232;9.222;2022-09-30T17:51:11;13.70;98.00
20081;DHT22;10200;49.232;9.222;2022-09-30T17:53:37;13.70;98.60
20081;DHT22;10200;49.232;9.222;2022-09-30T17:56:06;13.60;99.10
20081;DHT22;10200;49.232;9.222;2022-09-30T17:58:37;13.60;99.50
20081;DHT22;10200;49.232;9.222;2022-09-30T18:01:06;13.50;99.90
20081;DHT22;10200;49.232;9.222;2022-09-30T18:03:32;13.50;99.90
20081;DHT22;10200;49.232;9.222;2022-09-30T18:05:58;13.40;99.90
20081;DHT22;10200;49.232;9.222;2022-09-30T18:08:24;13.40;99.90
20081;DHT22;10200;49.232;9.222;2022-09-30T18:10:50;13.40;99.90
20081;DHT22;10200;49.232;9.222;2022-09-30T18:13:18;13.30;99.90
20081;DHT22;10200;49.232;9.222;2022-09-30T18:15:44;13.20;99.90
20081;DHT22;10200;49.232;9.222;2022-09-30T18:18:11;13.10;99.90
20081;DHT22;10200;49.232;9.222;2022-09-30T18:20:47;13.00;99.90
20081;DHT22;10200;49.232;9.222;2022-09-30T18:23:15;13.00;99.90
20081;DHT22;10200;49.232;9.222;2022-09-30T18:25:41;12.90;99.90
20081;DHT22;10200;49.232;9.222;2022-09-30T18:28:08;12.90;99.90
20081;DHT22;10200;49.232;9.222;2022-09-30T18:30:35;12.90;99.90
20081;DHT22;10200;49.232;9.222;2022-09-30T18:33:02;12.80;99.90
20081;DHT22;10200;49.232;9.222;2022-09-30T18:35:32;12.80;99.90
20081;DHT22;10200;49.232;9.222;2022-09-30T18:37:59;12.70;99.90
20081;DHT22;10200;49.232;9.222;2022-09-30T18:40:26;12.70;99.90
20081;DHT22;10200;49.232;9.222;2022-09-30T18:42:59;12.60;99.90
20081;DHT22;10200;49.232;9.222;2022-09-30T18:45:31;12.60;99.90
20081;DHT22;10200;49.232;9.222;2022-09-30T18:47:58;12.60;99.90
20081;DHT22;10200;49.232;9.222;2022-09-30T18:50:26;12.50;99.90
20081;DHT22;10200;49.232;9.222;2022-09-30T18:52:52;12.50;99.90
20081;DHT22;10200;49.232;9.222;2022-09-30T18:55:18;12.50;99.90
20081;DHT22;10200;49.232;9.222;2022-09-30T18:57:44;12.40;99.90